createdAt,value
2023-03-11T12:55:37.906Z,81.83
2023-03-11T12:58:59.397Z,81.56
2023-03-11T13:01:55.847Z,81.70
2023-03-11T13:04:37.968Z,81.98
2023-03-11T13:07:39.040Z,81.90
2023-03-11T13:10:16.335Z,81.82
2023-03-11T13:12:48.411Z,81.88
2023-03-11T13:15:37.614Z,82.19
2023-03-11T13:18:24.880Z,82.36
2023-03-11T13:21:41.397Z,82.82
2023-03-11T13:24:51.502Z,82.84
2023-03-11T13:27:30.027Z,82.99
2023-03-11T13:30:26.419Z,83.20
2023-03-11T13:33:12.173Z,83.14
2023-03-11T13:35:59.946Z,83.25
2023-03-11T13:38:49.680Z,83.36
2023-03-11T13:41:33.633Z,83.14
2023-03-11T13:44:22.393Z,83.44
2023-03-11T13:46:58.491Z,83.47
2023-03-11T13:49:39.244Z,83.41
2023-03-11T13:52:26.368Z,83.70
2023-03-11T13:55:35.551Z,83.50
2023-03-11T13:58:18.006Z,83.73
2023-03-11T14:00:55.236Z,83.81
2023-03-11T14:03:46.611Z,83.88
2023-03-11T14:06:19.463Z,83.89
2023-03-11T14:08:55.808Z,83.76
2023-03-11T14:11:30.324Z,83.54
2023-03-11T14:14:31.692Z,82.97
2023-03-11T14:17:21.366Z,82.72
2023-03-11T14:20:16.537Z,82.55
2023-03-11T14:22:51.224Z,82.48
2023-03-11T14:25:38.810Z,82.33
2023-03-11T14:28:08.119Z,82.03
2023-03-11T14:31:01.567Z,81.81
2023-03-11T14:33:38.824Z,81.73
2023-03-11T14:36:15.958Z,81.73
2023-03-11T14:39:03.828Z,81.14
2023-03-11T14:41:54.016Z,80.57
2023-03-11T14:44:44.797Z,80.19
2023-03-11T14:47:39.286Z,79.77
2023-03-11T14:50:16.609Z,80.40
2023-03-11T14:52:58.843Z,80.35
2023-03-11T14:55:40.524Z,80.07
2023-03-11T14:58:34.764Z,79.60
2023-03-11T15:01:26.593Z,79.13
2023-03-11T15:04:21.261Z,78.66
2023-03-11T15:07:03.281Z,78.52
2023-03-11T15:09:51.458Z,78.23
2023-03-11T15:12:37.338Z,77.53
2023-03-11T15:15:30.291Z,77.29
2023-03-11T15:18:02.988Z,76.78
2023-03-11T15:21:15.711Z,77.06
2023-03-11T15:23:48.636Z,76.83
2023-03-11T15:26:24.061Z,76.09
2023-03-11T15:28:57.565Z,75.34
2023-03-11T15:31:36.212Z,74.91
2023-03-11T15:34:32.121Z,74.94
2023-03-11T15:37:25.554Z,74.24
2023-03-11T15:39:58.722Z,72.92
2023-03-11T15:42:31.111Z,72.97
2023-03-11T15:45:10.424Z,73.36
2023-03-11T15:47:47.823Z,73.40
2023-03-11T15:50:28.632Z,73.40
2023-03-11T15:53:10.983Z,73.26
2023-03-11T15:56:07.349Z,73.04
2023-03-11T15:58:35.662Z,73.29
2023-03-11T16:01:09.016Z,73.40
2023-03-11T16:03:36.768Z,73.07
2023-03-11T16:06:13.933Z,73.05
2023-03-11T16:08:45.066Z,72.89
2023-03-11T16:11:14.677Z,73.00
2023-03-11T16:13:51.840Z,72.18
2023-03-11T16:16:20.837Z,72.17
2023-03-11T16:19:08.473Z,72.45
2023-03-11T16:21:39.756Z,72.53
2023-03-11T16:24:16.476Z,72.56
2023-03-11T16:26:43.801Z,72.42
2023-03-11T16:29:19.293Z,72.42
2023-03-11T16:31:49.896Z,72.52
2023-03-11T16:34:17.719Z,72.21
2023-03-11T16:36:45.002Z,72.22
2023-03-11T16:39:14.655Z,72.40
2023-03-11T16:41:46.140Z,72.81
2023-03-11T16:44:16.790Z,73.05
2023-03-11T16:47:04.208Z,73.30
2023-03-11T16:49:33.630Z,73.44
2023-03-11T16:52:00.968Z,73.59
2023-03-11T16:54:28.617Z,73.78
2023-03-11T16:56:56.381Z,74.01
2023-03-11T16:59:23.661Z,74.29
2023-03-11T17:02:13.043Z,74.38
2023-03-11T17:04:43.148Z,74.60
2023-03-11T17:07:24.952Z,74.61
2023-03-11T17:10:01.980Z,74.79
2023-03-11T17:12:49.372Z,74.72
2023-03-11T17:15:16.787Z,74.87
2023-03-11T17:18:05.262Z,74.99
2023-03-11T17:20:39.641Z,74.93
2023-03-11T17:23:27.314Z,75.08
2023-03-11T17:25:58.307Z,75.13
2023-03-11T17:28:31.821Z,75.21
2023-03-11T17:31:00.219Z,75.34
2023-03-11T17:33:32.717Z,75.57
2023-03-11T17:36:05.850Z,75.46
2023-03-11T17:38:46.935Z,75.64
2023-03-11T17:41:22.803Z,75.75
2023-03-11T17:44:00.481Z,75.61
2023-03-11T17:46:47.964Z,75.70
2023-03-11T17:49:25.520Z,75.75
2023-03-11T17:51:52.946Z,75.65
2023-03-11T17:54:20.319Z,75.74
2023-03-11T17:57:00.806Z,75.64
2023-03-11T17:59:28.353Z,75.75
2023-03-11T18:02:13.697Z,75.72
2023-03-11T18:04:55.132Z,75.56
2023-03-11T18:07:26.101Z,75.14
2023-03-11T18:10:15.982Z,75.13
2023-03-11T18:12:51.557Z,74.90
2023-03-11T18:15:30.072Z,74.60
2023-03-11T18:18:00.929Z,74.36
2023-03-11T18:20:28.998Z,74.10
2023-03-11T18:23:07.965Z,74.10
2023-03-11T18:25:35.212Z,74.09
2023-03-11T18:28:04.005Z,73.85
2023-03-11T18:30:43.363Z,73.68
2023-03-11T18:33:13.214Z,73.29
2023-03-11T18:36:01.300Z,73.23
2023-03-11T18:38:31.693Z,73.21
2023-03-11T18:41:19.362Z,73.18
2023-03-11T18:43:59.394Z,72.94
2023-03-11T18:46:37.870Z,72.92
2023-03-11T18:49:25.483Z,73.11
2023-03-11T18:52:04.497Z,72.78
2023-03-11T18:54:51.901Z,72.93
2023-03-11T18:57:22.398Z,72.89
2023-03-11T18:59:52.096Z,72.71
2023-03-11T19:02:22.149Z,72.85
2023-03-11T19:05:10.916Z,72.79
2023-03-11T19:07:48.394Z,72.86
2023-03-11T19:10:25.779Z,72.72
2023-03-11T19:13:13.292Z,72.63
2023-03-11T19:15:53.505Z,72.61
2023-03-11T19:18:41.310Z,72.76
2023-03-11T19:21:16.925Z,72.65
2023-03-11T19:24:04.603Z,72.83
2023-03-11T19:26:52.209Z,72.96
2023-03-11T19:29:23.900Z,72.86
2023-03-11T19:32:11.368Z,72.78
2023-03-11T19:34:41.705Z,73.01
2023-03-11T19:37:09.057Z,72.81
2023-03-11T19:39:36.315Z,72.84
2023-03-11T19:42:06.879Z,72.63
2023-03-11T19:44:34.043Z,72.66
2023-03-11T19:47:01.444Z,72.88
2023-03-11T19:49:31.193Z,72.99
2023-03-11T19:52:01.433Z,72.87
2023-03-11T19:54:46.307Z,72.88
2023-03-11T19:57:33.742Z,72.95
2023-03-11T20:00:23.097Z,73.05
2023-03-11T20:03:02.452Z,72.94
2023-03-11T20:05:32.381Z,73.29
2023-03-11T20:08:00.141Z,73.05
2023-03-11T20:10:50.008Z,73.31
2023-03-11T20:13:27.456Z,73.53
2023-03-11T20:15:55.094Z,73.69
2023-03-11T20:18:42.771Z,73.66
2023-03-11T20:21:19.335Z,73.70
2023-03-11T20:23:49.089Z,73.70
2023-03-11T20:26:36.891Z,73.79
2023-03-11T20:29:17.966Z,73.92
2023-03-11T20:31:45.907Z,73.78
2023-03-11T20:34:14.359Z,73.86
2023-03-11T20:36:41.613Z,73.87
2023-03-11T20:39:10.616Z,74.02
2023-03-11T20:41:39.764Z,74.05
2023-03-11T20:44:13.102Z,74.09
2023-03-11T20:46:40.428Z,73.99
2023-03-11T20:49:07.886Z,74.00
2023-03-11T20:51:48.209Z,74.10
2023-03-11T20:54:15.677Z,74.12
2023-03-11T20:56:49.187Z,74.14
2023-03-11T20:59:16.514Z,74.26
2023-03-11T21:01:46.988Z,74.22
2023-03-11T21:04:35.800Z,74.40
2023-03-11T21:07:03.165Z,74.28
2023-03-11T21:09:30.708Z,74.32
2023-03-11T21:11:57.981Z,74.39
2023-03-11T21:14:25.350Z,74.46
2023-03-11T21:16:52.840Z,74.57
2023-03-11T21:19:30.581Z,74.46
2023-03-11T21:21:58.232Z,74.55
2023-03-11T21:24:25.381Z,74.63
2023-03-11T21:26:52.912Z,74.58
2023-03-11T21:29:20.152Z,74.56
2023-03-11T21:31:47.540Z,74.56
2023-03-11T21:34:18.192Z,74.63
2023-03-11T21:36:48.629Z,74.68
2023-03-11T21:39:16.097Z,74.72
2023-03-11T21:41:44.094Z,74.74
2023-03-11T21:44:13.801Z,74.81
2023-03-11T21:46:51.666Z,74.89
2023-03-11T21:49:19.073Z,74.96
2023-03-11T21:52:08.013Z,75.04
2023-03-11T21:54:35.324Z,75.11
2023-03-11T21:57:02.792Z,75.30
2023-03-11T21:59:41.398Z,75.23
2023-03-11T22:02:13.476Z,75.39
2023-03-11T22:04:40.995Z,75.52
2023-03-11T22:07:08.504Z,75.49
2023-03-11T22:09:35.843Z,75.43
2023-03-11T22:12:03.830Z,75.47
2023-03-11T22:14:31.442Z,75.25
2023-03-11T22:17:01.807Z,75.33
2023-03-11T22:19:37.006Z,75.31
2023-03-11T22:22:04.612Z,75.32
2023-03-11T22:24:42.194Z,75.38
2023-03-11T22:27:09.478Z,75.41
2023-03-11T22:29:39.907Z,75.56
2023-03-11T22:32:10.160Z,75.41
2023-03-11T22:34:37.542Z,75.53
2023-03-11T22:37:04.921Z,75.50
2023-03-11T22:39:34.523Z,75.49
2023-03-11T22:42:02.295Z,75.49
2023-03-11T22:44:31.746Z,75.78
2023-03-11T22:47:19.334Z,75.57
2023-03-11T22:50:07.419Z,75.77
2023-03-11T22:52:37.390Z,75.92
2023-03-11T22:55:17.903Z,75.83
2023-03-11T22:57:56.083Z,76.04
2023-03-11T23:00:26.523Z,76.03
2023-03-11T23:03:04.679Z,76.14
2023-03-11T23:05:32.122Z,76.18
2023-03-11T23:07:59.433Z,76.23
2023-03-11T23:10:27.157Z,76.37
2023-03-11T23:12:54.471Z,76.48
2023-03-11T23:15:25.161Z,76.32
2023-03-11T23:17:55.371Z,76.49
2023-03-11T23:20:22.725Z,76.41
2023-03-11T23:22:49.763Z,76.43
2023-03-11T23:25:39.924Z,76.36
2023-03-11T23:28:09.064Z,76.39
2023-03-11T23:30:36.706Z,76.52
2023-03-11T23:33:04.495Z,76.74
2023-03-11T23:35:44.640Z,76.57
2023-03-11T23:38:14.278Z,76.64
2023-03-11T23:41:02.223Z,76.81
2023-03-11T23:43:40.064Z,76.77
2023-03-11T23:46:08.353Z,76.80
2023-03-11T23:48:35.721Z,77.09
2023-03-11T23:51:04.552Z,77.09
2023-03-11T23:53:35.779Z,77.09
2023-03-11T23:56:03.070Z,77.33
2023-03-11T23:58:33.086Z,77.47
